sensor_id;sensor_type;location;lat;lon;timestamp;P1;durP1;ratioP1;P2;durP2;ratioP2
9524;SDS011;15940;48.734;9.112;2022-12-07T00:01:43;10.03;;;6.77;;
9524;SDS011;15940;48.734;9.112;2022-12-07T00:04:12;10.67;;;7.17;;
9524;SDS011;15940;48.734;9.112;2022-12-07T00:06:42;7.90;;;6.53;;
9524;SDS011;15940;48.734;9.112;2022-12-07T00:09:12;9.07;;;6.70;;
9524;SDS011;15940;48.734;9.112;2022-12-07T00:11:40;8.67;;;6.77;;
9524;SDS011;15940;48.734;9.112;2022-12-07T00:14:10;7.17;;;6.13;;
9524;SDS011;15940;48.734;9.112;2022-12-07T00:16:39;7.50;;;6.67;;
9524;SDS011;15940;48.734;9.112;2022-12-07T00:19:07;8.63;;;7.10;;
9524;SDS011;15940;48.734;9.112;2022-12-07T00:21:36;7.80;;;7.00;;
9524;SDS011;15940;48.734;9.112;2022-12-07T00:24:05;8.07;;;6.90;;
9524;SDS011;15940;48.734;9.112;2022-12-07T00:26:32;9.33;;;7.00;;
9524;SDS011;15940;48.734;9.112;2022-12-07T00:29:02;8.57;;;6.83;;
9524;SDS011;15940;48.734;9.112;2022-12-07T00:31:33;8.03;;;7.23;;
9524;SDS011;15940;48.734;9.112;2022-12-07T00:34:03;9.40;;;7.20;;
9524;SDS011;15940;48.734;9.112;2022-12-07T00:36:31;8.00;;;7.00;;
9524;SDS011;15940;48.734;9.112;2022-12-07T00:38:59;8.93;;;7.30;;
9524;SDS011;15940;48.734;9.112;2022-12-07T00:41:29;8.53;;;6.63;;
9524;SDS011;15940;48.734;9.112;2022-12-07T00:43:56;8.13;;;7.20;;
9524;SDS011;15940;48.734;9.112;2022-12-07T00:46:24;7.77;;;6.93;;
9524;SDS011;15940;48.734;9.112;2022-12-07T00:48:52;8.87;;;7.07;;
9524;SDS011;15940;48.734;9.112;2022-12-07T00:51:21;7.73;;;6.93;;
9524;SDS011;15940;48.734;9.112;2022-12-07T00:53:49;7.80;;;6.83;;
9524;SDS011;15940;48.734;9.112;2022-12-07T00:56:18;10.60;;;7.40;;
9524;SDS011;15940;48.734;9.112;2022-12-07T00:58:50;8.50;;;6.80;;
9524;SDS011;15940;48.734;9.112;2022-12-07T01:01:20;7.97;;;6.67;;
9524;SDS011;15940;48.734;9.112;2022-12-07T01:03:48;8.03;;;6.77;;
9524;SDS011;15940;48.734;9.112;2022-12-07T01:06:15;7.00;;;6.30;;
9524;SDS011;15940;48.734;9.112;2022-12-07T01:08:43;9.13;;;7.20;;
9524;SDS011;15940;48.734;9.112;2022-12-07T01:11:12;7.60;;;6.80;;
9524;SDS011;15940;48.734;9.112;2022-12-07T01:13:41;7.40;;;6.30;;
9524;SDS011;15940;48.734;9.112;2022-12-07T01:16:11;9.60;;;6.73;;
9524;SDS011;15940;48.734;9.112;2022-12-07T01:18:40;8.90;;;6.73;;
9524;SDS011;15940;48.734;9.112;2022-12-07T01:21:09;9.00;;;6.93;;
9524;SDS011;15940;48.734;9.112;2022-12-07T01:23:39;8.40;;;7.00;;
9524;SDS011;15940;48.734;9.112;2022-12-07T01:26:09;8.00;;;6.47;;
9524;SDS011;15940;48.734;9.112;2022-12-07T01:28:38;7.30;;;6.60;;
9524;SDS011;15940;48.734;9.112;2022-12-07T01:31:06;9.97;;;6.80;;
9524;SDS011;15940;48.734;9.112;2022-12-07T01:33:38;7.80;;;6.93;;
9524;SDS011;15940;48.734;9.112;2022-12-07T01:36:06;9.43;;;7.70;;
9524;SDS011;15940;48.734;9.112;2022-12-07T01:38:38;8.70;;;7.20;;
9524;SDS011;15940;48.734;9.112;2022-12-07T01:41:06;10.37;;;6.97;;
9524;SDS011;15940;48.734;9.112;2022-12-07T01:43:33;8.93;;;7.60;;
9524;SDS011;15940;48.734;9.112;2022-12-07T01:46:01;8.60;;;7.70;;
9524;SDS011;15940;48.734;9.112;2022-12-07T01:48:30;8.47;;;7.47;;
9524;SDS011;15940;48.734;9.112;2022-12-07T01:51:03;10.60;;;8.40;;
9524;SDS011;15940;48.734;9.112;2022-12-07T01:53:33;8.97;;;7.43;;
9524;SDS011;15940;48.734;9.112;2022-12-07T01:56:03;9.93;;;8.00;;
9524;SDS011;15940;48.734;9.112;2022-12-07T01:58:32;9.03;;;7.73;;
9524;SDS011;15940;48.734;9.112;2022-12-07T02:00:59;10.10;;;8.03;;
9524;SDS011;15940;48.734;9.112;2022-12-07T02:03:27;9.77;;;7.67;;
9524;SDS011;15940;48.734;9.112;2022-12-07T02:05:58;11.83;;;8.10;;
9524;SDS011;15940;48.734;9.112;2022-12-07T02:08:27;10.27;;;8.37;;
9524;SDS011;15940;48.734;9.112;2022-12-07T02:10:54;10.97;;;7.87;;
9524;SDS011;15940;48.734;9.112;2022-12-07T02:13:22;10.17;;;7.60;;
9524;SDS011;15940;48.734;9.112;2022-12-07T02:15:59;9.53;;;7.23;;
9524;SDS011;15940;48.734;9.112;2022-12-07T02:18:43;11.27;;;8.10;;
9524;SDS011;15940;48.734;9.112;2022-12-07T02:21:24;9.00;;;7.70;;
9524;SDS011;15940;48.734;9.112;2022-12-07T02:24:15;8.60;;;7.40;;
9524;SDS011;15940;48.734;9.112;2022-12-07T02:27:10;9.70;;;8.10;;
9524;SDS011;15940;48.734;9.112;2022-12-07T02:30:06;9.53;;;7.43;;
9524;SDS011;15940;48.734;9.112;2022-12-07T02:32:39;9.17;;;7.87;;
9524;SDS011;15940;48.734;9.112;2022-12-07T02:35:14;9.07;;;7.47;;
9524;SDS011;15940;48.734;9.112;2022-12-07T02:37:51;10.50;;;7.97;;
9524;SDS011;15940;48.734;9.112;2022-12-07T02:40:29;9.03;;;7.60;;
9524;SDS011;15940;48.734;9.112;2022-12-07T02:43:03;10.07;;;7.50;;
9524;SDS011;15940;48.734;9.112;2022-12-07T02:45:39;8.67;;;7.57;;
9524;SDS011;15940;48.734;9.112;2022-12-07T02:48:10;9.20;;;7.40;;
9524;SDS011;15940;48.734;9.112;2022-12-07T02:50:44;9.67;;;7.83;;
9524;SDS011;15940;48.734;9.112;2022-12-07T02:55:59;8.60;;;7.37;;
9524;SDS011;15940;48.734;9.112;2022-12-07T02:58:32;7.90;;;6.93;;
9524;SDS011;15940;48.734;9.112;2022-12-07T03:01:11;8.90;;;7.50;;
9524;SDS011;15940;48.734;9.112;2022-12-07T03:03:54;9.13;;;7.83;;
9524;SDS011;15940;48.734;9.112;2022-12-07T03:06:48;10.10;;;8.47;;
9524;SDS011;15940;48.734;9.112;2022-12-07T03:09:20;9.40;;;8.07;;
9524;SDS011;15940;48.734;9.112;2022-12-07T03:11:55;9.10;;;7.80;;
9524;SDS011;15940;48.734;9.112;2022-12-07T03:14:31;9.40;;;7.33;;
9524;SDS011;15940;48.734;9.112;2022-12-07T03:17:07;8.33;;;7.43;;
9524;SDS011;15940;48.734;9.112;2022-12-07T03:19:40;9.23;;;8.10;;
9524;SDS011;15940;48.734;9.112;2022-12-07T03:22:09;8.23;;;7.40;;
9524;SDS011;15940;48.734;9.112;2022-12-07T03:24:40;9.33;;;7.47;;
9524;SDS011;15940;48.734;9.112;2022-12-07T03:27:13;8.13;;;7.30;;
9524;SDS011;15940;48.734;9.112;2022-12-07T03:29:46;10.63;;;8.07;;
9524;SDS011;15940;48.734;9.112;2022-12-07T03:32:19;9.07;;;7.90;;
9524;SDS011;15940;48.734;9.112;2022-12-07T03:34:56;10.13;;;7.73;;
9524;SDS011;15940;48.734;9.112;2022-12-07T03:37:30;8.40;;;7.07;;
9524;SDS011;15940;48.734;9.112;2022-12-07T03:40:02;8.10;;;7.17;;
9524;SDS011;15940;48.734;9.112;2022-12-07T03:42:37;9.30;;;7.33;;
9524;SDS011;15940;48.734;9.112;2022-12-07T03:45:05;9.17;;;7.80;;
9524;SDS011;15940;48.734;9.112;2022-12-07T03:47:36;9.33;;;8.00;;
9524;SDS011;15940;48.734;9.112;2022-12-07T03:50:11;10.03;;;8.20;;
9524;SDS011;15940;48.734;9.112;2022-12-07T03:52:47;8.97;;;7.93;;
9524;SDS011;15940;48.734;9.112;2022-12-07T03:55:20;8.53;;;7.33;;
9524;SDS011;15940;48.734;9.112;2022-12-07T03:57:53;8.23;;;7.33;;
9524;SDS011;15940;48.734;9.112;2022-12-07T04:00:25;8.53;;;7.60;;
9524;SDS011;15940;48.734;9.112;2022-12-07T04:02:54;10.00;;;7.90;;
9524;SDS011;15940;48.734;9.112;2022-12-07T04:05:22;10.23;;;7.77;;
9524;SDS011;15940;48.734;9.112;2022-12-07T04:07:49;8.90;;;7.33;;
9524;SDS011;15940;48.734;9.112;2022-12-07T04:10:16;9.10;;;7.30;;
9524;SDS011;15940;48.734;9.112;2022-12-07T04:12:43;9.50;;;7.73;;
9524;SDS011;15940;48.734;9.112;2022-12-07T04:15:10;8.90;;;7.87;;
9524;SDS011;15940;48.734;9.112;2022-12-07T04:17:38;8.80;;;7.57;;
9524;SDS011;15940;48.734;9.112;2022-12-07T04:20:07;8.10;;;7.20;;
9524;SDS011;15940;48.734;9.112;2022-12-07T04:22:35;10.63;;;8.20;;
9524;SDS011;15940;48.734;9.112;2022-12-07T04:25:02;8.47;;;7.57;;
9524;SDS011;15940;48.734;9.112;2022-12-07T04:27:31;9.17;;;7.53;;
9524;SDS011;15940;48.734;9.112;2022-12-07T04:29:58;10.30;;;7.93;;
9524;SDS011;15940;48.734;9.112;2022-12-07T04:32:24;8.53;;;7.43;;
9524;SDS011;15940;48.734;9.112;2022-12-07T04:34:51;9.93;;;8.07;;
9524;SDS011;15940;48.734;9.112;2022-12-07T04:37:20;9.07;;;7.63;;
9524;SDS011;15940;48.734;9.112;2022-12-07T04:39:47;8.47;;;6.87;;
9524;SDS011;15940;48.734;9.112;2022-12-07T04:42:14;8.37;;;6.63;;
9524;SDS011;15940;48.734;9.112;2022-12-07T04:44:41;8.20;;;6.07;;
9524;SDS011;15940;48.734;9.112;2022-12-07T04:47:08;7.80;;;6.73;;
9524;SDS011;15940;48.734;9.112;2022-12-07T04:49:35;6.93;;;6.20;;
9524;SDS011;15940;48.734;9.112;2022-12-07T04:52:02;8.10;;;6.93;;
9524;SDS011;15940;48.734;9.112;2022-12-07T04:54:30;7.70;;;6.90;;
9524;SDS011;15940;48.734;9.112;2022-12-07T04:56:57;7.60;;;6.13;;
9524;SDS011;15940;48.734;9.112;2022-12-07T04:59:25;7.83;;;5.97;;
9524;SDS011;15940;48.734;9.112;2022-12-07T05:01:52;7.83;;;6.03;;
9524;SDS011;15940;48.734;9.112;2022-12-07T05:04:19;5.53;;;5.03;;
9524;SDS011;15940;48.734;9.112;2022-12-07T05:06:46;5.07;;;4.57;;
9524;SDS011;15940;48.734;9.112;2022-12-07T05:09:13;7.13;;;4.57;;
9524;SDS011;15940;48.734;9.112;2022-12-07T05:11:41;5.37;;;4.20;;
9524;SDS011;15940;48.734;9.112;2022-12-07T05:14:09;6.10;;;5.23;;
9524;SDS011;15940;48.734;9.112;2022-12-07T05:16:40;5.93;;;5.17;;
9524;SDS011;15940;48.734;9.112;2022-12-07T05:19:09;7.00;;;5.53;;
9524;SDS011;15940;48.734;9.112;2022-12-07T05:21:37;7.40;;;5.57;;
9524;SDS011;15940;48.734;9.112;2022-12-07T05:24:05;7.87;;;4.80;;
9524;SDS011;15940;48.734;9.112;2022-12-07T05:26:34;4.77;;;4.27;;
9524;SDS011;15940;48.734;9.112;2022-12-07T05:29:03;5.87;;;4.73;;
9524;SDS011;15940;48.734;9.112;2022-12-07T05:31:31;5.53;;;5.03;;
9524;SDS011;15940;48.734;9.112;2022-12-07T05:33:59;4.87;;;4.40;;
9524;SDS011;15940;48.734;9.112;2022-12-07T05:36:26;5.57;;;4.10;;
9524;SDS011;15940;48.734;9.112;2022-12-07T05:38:56;6.00;;;4.70;;
9524;SDS011;15940;48.734;9.112;2022-12-07T05:41:23;5.10;;;4.57;;
9524;SDS011;15940;48.734;9.112;2022-12-07T05:44:09;5.57;;;4.57;;
9524;SDS011;15940;48.734;9.112;2022-12-07T05:46:36;5.97;;;4.77;;
9524;SDS011;15940;48.734;9.112;2022-12-07T05:49:03;6.47;;;5.77;;
9524;SDS011;15940;48.734;9.112;2022-12-07T05:51:30;7.73;;;6.27;;
9524;SDS011;15940;48.734;9.112;2022-12-07T05:53:57;8.17;;;6.17;;
9524;SDS011;15940;48.734;9.112;2022-12-07T05:56:24;6.10;;;5.50;;
9524;SDS011;15940;48.734;9.112;2022-12-07T05:58:52;6.20;;;5.60;;
9524;SDS011;15940;48.734;9.112;2022-12-07T06:01:38;6.77;;;5.90;;
9524;SDS011;15940;48.734;9.112;2022-12-07T06:04:05;7.00;;;5.37;;
9524;SDS011;15940;48.734;9.112;2022-12-07T06:06:32;6.67;;;5.63;;
9524;SDS011;15940;48.734;9.112;2022-12-07T06:08:59;8.03;;;5.40;;
9524;SDS011;15940;48.734;9.112;2022-12-07T06:11:27;5.93;;;5.13;;
9524;SDS011;15940;48.734;9.112;2022-12-07T06:14:11;5.77;;;5.00;;
9524;SDS011;15940;48.734;9.112;2022-12-07T06:16:40;5.67;;;5.00;;
9524;SDS011;15940;48.734;9.112;2022-12-07T06:19:07;6.17;;;5.03;;
9524;SDS011;15940;48.734;9.112;2022-12-07T06:21:34;5.80;;;5.17;;
9524;SDS011;15940;48.734;9.112;2022-12-07T06:24:01;7.70;;;5.30;;
9524;SDS011;15940;48.734;9.112;2022-12-07T06:26:29;10.30;;;5.20;;
9524;SDS011;15940;48.734;9.112;2022-12-07T06:28:56;6.37;;;5.30;;
9524;SDS011;15940;48.734;9.112;2022-12-07T06:31:23;6.80;;;5.50;;
9524;SDS011;15940;48.734;9.112;2022-12-07T06:33:51;8.93;;;5.73;;
9524;SDS011;15940;48.734;9.112;2022-12-07T06:36:23;7.47;;;5.57;;
9524;SDS011;15940;48.734;9.112;2022-12-07T06:38:50;8.00;;;5.67;;
9524;SDS011;15940;48.734;9.112;2022-12-07T06:41:17;6.73;;;6.03;;
9524;SDS011;15940;48.734;9.112;2022-12-07T06:43:44;6.10;;;5.40;;
9524;SDS011;15940;48.734;9.112;2022-12-07T06:46:11;6.10;;;5.20;;
9524;SDS011;15940;48.734;9.112;2022-12-07T06:48:39;6.47;;;5.50;;
9524;SDS011;15940;48.734;9.112;2022-12-07T06:51:07;7.70;;;5.87;;
9524;SDS011;15940;48.734;9.112;2022-12-07T06:53:34;8.07;;;5.80;;
9524;SDS011;15940;48.734;9.112;2022-12-07T06:56:02;7.03;;;5.73;;
9524;SDS011;15940;48.734;9.112;2022-12-07T06:58:29;7.57;;;5.63;;
9524;SDS011;15940;48.734;9.112;2022-12-07T07:00:57;8.13;;;6.43;;
9524;SDS011;15940;48.734;9.112;2022-12-07T07:03:24;9.23;;;5.47;;
9524;SDS011;15940;48.734;9.112;2022-12-07T07:05:51;6.53;;;4.90;;
9524;SDS011;15940;48.734;9.112;2022-12-07T07:08:19;6.33;;;5.20;;
9524;SDS011;15940;48.734;9.112;2022-12-07T07:10:46;6.70;;;5.47;;
9524;SDS011;15940;48.734;9.112;2022-12-07T07:13:13;8.03;;;5.57;;
9524;SDS011;15940;48.734;9.112;2022-12-07T07:15:40;7.50;;;5.43;;
9524;SDS011;15940;48.734;9.112;2022-12-07T07:18:07;6.23;;;5.17;;
9524;SDS011;15940;48.734;9.112;2022-12-07T07:20:34;6.37;;;5.73;;
9524;SDS011;15940;48.734;9.112;2022-12-07T07:23:03;6.50;;;5.10;;
9524;SDS011;15940;48.734;9.112;2022-12-07T07:25:32;6.03;;;5.10;;
9524;SDS011;15940;48.734;9.112;2022-12-07T07:27:59;5.73;;;5.13;;
9524;SDS011;15940;48.734;9.112;2022-12-07T07:30:26;6.70;;;4.93;;
9524;SDS011;15940;48.734;9.112;2022-12-07T07:32:55;6.77;;;5.17;;
9524;SDS011;15940;48.734;9.112;2022-12-07T07:35:24;6.40;;;5.40;;
9524;SDS011;15940;48.734;9.112;2022-12-07T07:37:51;12.60;;;5.40;;
9524;SDS011;15940;48.734;9.112;2022-12-07T07:40:18;7.30;;;5.33;;
9524;SDS011;15940;48.734;9.112;2022-12-07T07:42:47;7.70;;;5.50;;
9524;SDS011;15940;48.734;9.112;2022-12-07T07:45:15;6.37;;;5.53;;
9524;SDS011;15940;48.734;9.112;2022-12-07T07:47:42;6.13;;;5.43;;
9524;SDS011;15940;48.734;9.112;2022-12-07T07:50:10;7.57;;;5.60;;
9524;SDS011;15940;48.734;9.112;2022-12-07T07:52:37;5.80;;;5.00;;
9524;SDS011;15940;48.734;9.112;2022-12-07T07:55:05;6.13;;;5.27;;
9524;SDS011;15940;48.734;9.112;2022-12-07T07:57:33;5.77;;;4.90;;
9524;SDS011;15940;48.734;9.112;2022-12-07T08:00:02;8.23;;;5.23;;
9524;SDS011;15940;48.734;9.112;2022-12-07T08:02:31;7.83;;;6.00;;
9524;SDS011;15940;48.734;9.112;2022-12-07T08:04:58;6.93;;;5.87;;
9524;SDS011;15940;48.734;9.112;2022-12-07T08:07:26;8.43;;;6.30;;
9524;SDS011;15940;48.734;9.112;2022-12-07T08:09:54;5.77;;;5.17;;
9524;SDS011;15940;48.734;9.112;2022-12-07T08:12:21;6.37;;;5.77;;
9524;SDS011;15940;48.734;9.112;2022-12-07T08:14:48;6.73;;;5.80;;
9524;SDS011;15940;48.734;9.112;2022-12-07T08:17:16;6.17;;;5.50;;
9524;SDS011;15940;48.734;9.112;2022-12-07T08:19:43;8.27;;;5.10;;
9524;SDS011;15940;48.734;9.112;2022-12-07T08:22:10;6.43;;;5.20;;
9524;SDS011;15940;48.734;9.112;2022-12-07T08:24:37;5.40;;;4.80;;
9524;SDS011;15940;48.734;9.112;2022-12-07T08:27:04;6.57;;;4.90;;
9524;SDS011;15940;48.734;9.112;2022-12-07T08:29:31;6.40;;;4.83;;
9524;SDS011;15940;48.734;9.112;2022-12-07T08:31:58;5.70;;;4.73;;
9524;SDS011;15940;48.734;9.112;2022-12-07T08:34:27;6.23;;;5.03;;
9524;SDS011;15940;48.734;9.112;2022-12-07T08:36:54;5.77;;;5.13;;
9524;SDS011;15940;48.734;9.112;2022-12-07T08:39:21;6.40;;;4.93;;
9524;SDS011;15940;48.734;9.112;2022-12-07T08:41:48;5.50;;;4.77;;
9524;SDS011;15940;48.734;9.112;2022-12-07T08:44:15;5.50;;;4.83;;
9524;SDS011;15940;48.734;9.112;2022-12-07T08:46:44;8.97;;;5.17;;
9524;SDS011;15940;48.734;9.112;2022-12-07T08:49:16;5.50;;;4.67;;
9524;SDS011;15940;48.734;9.112;2022-12-07T08:51:47;5.37;;;4.47;;
9524;SDS011;15940;48.734;9.112;2022-12-07T08:54:15;4.67;;;4.27;;
9524;SDS011;15940;48.734;9.112;2022-12-07T08:56:44;5.33;;;4.83;;
9524;SDS011;15940;48.734;9.112;2022-12-07T08:59:13;6.60;;;4.90;;
9524;SDS011;15940;48.734;9.112;2022-12-07T09:01:43;5.37;;;4.50;;
9524;SDS011;15940;48.734;9.112;2022-12-07T09:04:10;6.13;;;4.90;;
9524;SDS011;15940;48.734;9.112;2022-12-07T09:06:37;5.50;;;4.57;;
9524;SDS011;15940;48.734;9.112;2022-12-07T09:09:06;4.90;;;4.13;;
9524;SDS011;15940;48.734;9.112;2022-12-07T09:11:34;6.23;;;4.47;;
9524;SDS011;15940;48.734;9.112;2022-12-07T09:14:01;5.80;;;4.70;;
9524;SDS011;15940;48.734;9.112;2022-12-07T09:16:28;5.10;;;4.60;;
9524;SDS011;15940;48.734;9.112;2022-12-07T09:18:55;4.93;;;3.93;;
9524;SDS011;15940;48.734;9.112;2022-12-07T09:21:22;5.57;;;4.73;;
9524;SDS011;15940;48.734;9.112;2022-12-07T09:23:49;6.33;;;4.40;;
9524;SDS011;15940;48.734;9.112;2022-12-07T09:26:18;5.80;;;4.63;;
9524;SDS011;15940;48.734;9.112;2022-12-07T09:28:45;7.03;;;4.40;;
9524;SDS011;15940;48.734;9.112;2022-12-07T09:31:12;5.07;;;4.50;;
9524;SDS011;15940;48.734;9.112;2022-12-07T09:33:39;6.17;;;4.23;;
9524;SDS011;15940;48.734;9.112;2022-12-07T09:36:06;6.37;;;5.20;;
9524;SDS011;15940;48.734;9.112;2022-12-07T09:38:34;5.13;;;4.10;;
9524;SDS011;15940;48.734;9.112;2022-12-07T09:41:04;6.10;;;4.40;;
9524;SDS011;15940;48.734;9.112;2022-12-07T09:43:34;4.87;;;4.37;;
9524;SDS011;15940;48.734;9.112;2022-12-07T09:46:04;7.23;;;4.27;;
9524;SDS011;15940;48.734;9.112;2022-12-07T09:48:32;7.07;;;4.57;;
9524;SDS011;15940;48.734;9.112;2022-12-07T09:51:09;6.20;;;5.00;;
9524;SDS011;15940;48.734;9.112;2022-12-07T09:53:42;5.77;;;4.07;;
9524;SDS011;15940;48.734;9.112;2022-12-07T09:56:11;4.97;;;4.40;;
9524;SDS011;15940;48.734;9.112;2022-12-07T09:58:40;4.57;;;4.00;;
9524;SDS011;15940;48.734;9.112;2022-12-07T10:01:09;6.03;;;4.50;;
9524;SDS011;15940;48.734;9.112;2022-12-07T10:03:42;6.80;;;3.83;;
9524;SDS011;15940;48.734;9.112;2022-12-07T10:06:16;4.33;;;3.80;;
9524;SDS011;15940;48.734;9.112;2022-12-07T10:08:43;4.23;;;3.43;;
9524;SDS011;15940;48.734;9.112;2022-12-07T10:11:11;6.37;;;3.70;;
9524;SDS011;15940;48.734;9.112;2022-12-07T10:13:41;3.80;;;3.43;;
9524;SDS011;15940;48.734;9.112;2022-12-07T10:16:31;4.53;;;3.07;;
9524;SDS011;15940;48.734;9.112;2022-12-07T10:22:00;4.13;;;3.60;;
9524;SDS011;15940;48.734;9.112;2022-12-07T10:24:31;4.00;;;3.60;;
9524;SDS011;15940;48.734;9.112;2022-12-07T10:26:58;5.73;;;4.10;;
9524;SDS011;15940;48.734;9.112;2022-12-07T10:29:29;4.00;;;3.60;;
9524;SDS011;15940;48.734;9.112;2022-12-07T10:31:59;4.07;;;3.40;;
9524;SDS011;15940;48.734;9.112;2022-12-07T10:34:29;6.00;;;4.10;;
9524;SDS011;15940;48.734;9.112;2022-12-07T10:37:13;6.40;;;3.77;;
9524;SDS011;15940;48.734;9.112;2022-12-07T10:39:45;4.13;;;3.70;;
9524;SDS011;15940;48.734;9.112;2022-12-07T10:42:18;4.20;;;3.90;;
9524;SDS011;15940;48.734;9.112;2022-12-07T10:44:49;4.07;;;3.67;;
9524;SDS011;15940;48.734;9.112;2022-12-07T10:47:36;3.80;;;3.30;;
9524;SDS011;15940;48.734;9.112;2022-12-07T10:50:25;4.07;;;3.67;;
9524;SDS011;15940;48.734;9.112;2022-12-07T10:56:21;5.00;;;3.93;;
9524;SDS011;15940;48.734;9.112;2022-12-07T10:59:24;4.40;;;4.00;;
9524;SDS011;15940;48.734;9.112;2022-12-07T11:02:25;5.50;;;4.10;;
9524;SDS011;15940;48.734;9.112;2022-12-07T11:05:17;4.53;;;3.90;;
9524;SDS011;15940;48.734;9.112;2022-12-07T11:07:54;4.93;;;3.53;;
9524;SDS011;15940;48.734;9.112;2022-12-07T11:10:34;5.17;;;3.70;;
9524;SDS011;15940;48.734;9.112;2022-12-07T11:19:10;3.87;;;3.47;;
9524;SDS011;15940;48.734;9.112;2022-12-07T11:21:55;4.10;;;3.70;;
9524;SDS011;15940;48.734;9.112;2022-12-07T11:24:25;4.23;;;3.83;;
9524;SDS011;15940;48.734;9.112;2022-12-07T11:27:03;3.53;;;3.23;;
9524;SDS011;15940;48.734;9.112;2022-12-07T11:32:47;5.27;;;3.70;;
9524;SDS011;15940;48.734;9.112;2022-12-07T11:35:38;4.37;;;3.50;;
9524;SDS011;15940;48.734;9.112;2022-12-07T11:38:21;4.30;;;3.47;;
9524;SDS011;15940;48.734;9.112;2022-12-07T11:40:53;3.80;;;3.50;;
9524;SDS011;15940;48.734;9.112;2022-12-07T11:43:37;5.47;;;3.30;;
9524;SDS011;15940;48.734;9.112;2022-12-07T11:46:22;4.47;;;3.30;;
9524;SDS011;15940;48.734;9.112;2022-12-07T11:48:58;5.57;;;3.40;;
9524;SDS011;15940;48.734;9.112;2022-12-07T11:51:34;4.20;;;3.07;;
9524;SDS011;15940;48.734;9.112;2022-12-07T11:54:10;4.63;;;3.60;;
9524;SDS011;15940;48.734;9.112;2022-12-07T11:56:42;4.13;;;3.73;;
9524;SDS011;15940;48.734;9.112;2022-12-07T11:59:13;3.40;;;3.10;;
9524;SDS011;15940;48.734;9.112;2022-12-07T12:01:52;3.60;;;3.30;;
9524;SDS011;15940;48.734;9.112;2022-12-07T12:04:30;3.93;;;3.17;;
9524;SDS011;15940;48.734;9.112;2022-12-07T12:07:12;3.27;;;2.50;;
9524;SDS011;15940;48.734;9.112;2022-12-07T12:09:47;4.30;;;2.80;;
9524;SDS011;15940;48.734;9.112;2022-12-07T12:12:35;5.00;;;2.80;;
9524;SDS011;15940;48.734;9.112;2022-12-07T12:15:21;2.77;;;2.57;;
9524;SDS011;15940;48.734;9.112;2022-12-07T12:21:00;3.23;;;2.60;;
9524;SDS011;15940;48.734;9.112;2022-12-07T12:23:35;2.60;;;2.40;;
9524;SDS011;15940;48.734;9.112;2022-12-07T12:26:07;3.07;;;2.60;;
9524;SDS011;15940;48.734;9.112;2022-12-07T12:28:49;2.90;;;2.70;;
9524;SDS011;15940;48.734;9.112;2022-12-07T12:31:31;2.50;;;2.30;;
9524;SDS011;15940;48.734;9.112;2022-12-07T12:34:03;2.67;;;2.30;;
9524;SDS011;15940;48.734;9.112;2022-12-07T12:37:17;3.33;;;2.70;;
9524;SDS011;15940;48.734;9.112;2022-12-07T12:59:18;5.03;;;4.00;;
9524;SDS011;15940;48.734;9.112;2022-12-07T13:01:55;3.97;;;3.57;;
9524;SDS011;15940;48.734;9.112;2022-12-07T13:10:28;4.37;;;3.33;;
9524;SDS011;15940;48.734;9.112;2022-12-07T13:25:31;2.87;;;2.57;;
9524;SDS011;15940;48.734;9.112;2022-12-07T13:28:13;2.87;;;2.67;;
9524;SDS011;15940;48.734;9.112;2022-12-07T13:30:46;3.03;;;2.77;;
9524;SDS011;15940;48.734;9.112;2022-12-07T13:33:29;4.43;;;3.13;;
9524;SDS011;15940;48.734;9.112;2022-12-07T13:35:57;3.33;;;3.03;;
9524;SDS011;15940;48.734;9.112;2022-12-07T13:38:27;4.63;;;3.23;;
9524;SDS011;15940;48.734;9.112;2022-12-07T13:41:02;3.30;;;3.00;;
9524;SDS011;15940;48.734;9.112;2022-12-07T13:43:44;2.70;;;2.50;;
9524;SDS011;15940;48.734;9.112;2022-12-07T13:46:14;3.03;;;2.73;;
9524;SDS011;15940;48.734;9.112;2022-12-07T13:48:44;2.33;;;2.13;;
9524;SDS011;15940;48.734;9.112;2022-12-07T13:51:17;2.37;;;2.17;;
9524;SDS011;15940;48.734;9.112;2022-12-07T13:53:47;2.90;;;2.70;;
9524;SDS011;15940;48.734;9.112;2022-12-07T13:56:20;2.30;;;2.10;;
9524;SDS011;15940;48.734;9.112;2022-12-07T13:58:51;2.80;;;2.60;;
9524;SDS011;15940;48.734;9.112;2022-12-07T14:01:19;3.47;;;2.53;;
9524;SDS011;15940;48.734;9.112;2022-12-07T14:03:46;3.20;;;2.90;;
9524;SDS011;15940;48.734;9.112;2022-12-07T14:06:17;2.63;;;2.37;;
9524;SDS011;15940;48.734;9.112;2022-12-07T14:08:50;3.20;;;2.90;;
9524;SDS011;15940;48.734;9.112;2022-12-07T14:11:33;4.03;;;3.00;;
9524;SDS011;15940;48.734;9.112;2022-12-07T14:14:00;3.30;;;3.00;;
9524;SDS011;15940;48.734;9.112;2022-12-07T14:16:30;3.10;;;2.80;;
9524;SDS011;15940;48.734;9.112;2022-12-07T14:19:00;3.10;;;2.90;;
9524;SDS011;15940;48.734;9.112;2022-12-07T14:21:32;2.70;;;2.50;;
9524;SDS011;15940;48.734;9.112;2022-12-07T14:24:11;3.30;;;3.00;;
9524;SDS011;15940;48.734;9.112;2022-12-07T14:26:44;3.03;;;2.83;;
9524;SDS011;15940;48.734;9.112;2022-12-07T14:29:28;5.27;;;2.87;;
9524;SDS011;15940;48.734;9.112;2022-12-07T14:32:08;3.20;;;2.90;;
9524;SDS011;15940;48.734;9.112;2022-12-07T14:34:53;3.27;;;2.97;;
9524;SDS011;15940;48.734;9.112;2022-12-07T14:37:23;3.20;;;2.90;;
9524;SDS011;15940;48.734;9.112;2022-12-07T14:39:50;4.20;;;3.37;;
9524;SDS011;15940;48.734;9.112;2022-12-07T14:42:19;3.73;;;3.10;;
9524;SDS011;15940;48.734;9.112;2022-12-07T14:44:49;3.40;;;3.10;;
9524;SDS011;15940;48.734;9.112;2022-12-07T14:47:16;5.33;;;3.90;;
9524;SDS011;15940;48.734;9.112;2022-12-07T14:49:43;4.57;;;3.60;;
9524;SDS011;15940;48.734;9.112;2022-12-07T14:52:13;5.63;;;3.40;;
9524;SDS011;15940;48.734;9.112;2022-12-07T14:54:44;4.63;;;3.87;;
9524;SDS011;15940;48.734;9.112;2022-12-07T14:57:11;3.83;;;3.50;;
9524;SDS011;15940;48.734;9.112;2022-12-07T14:59:40;3.93;;;3.50;;
9524;SDS011;15940;48.734;9.112;2022-12-07T15:02:09;6.17;;;3.67;;
9524;SDS011;15940;48.734;9.112;2022-12-07T15:04:38;5.53;;;4.30;;
9524;SDS011;15940;48.734;9.112;2022-12-07T15:07:09;4.60;;;4.10;;
9524;SDS011;15940;48.734;9.112;2022-12-07T15:09:43;7.10;;;4.23;;
9524;SDS011;15940;48.734;9.112;2022-12-07T15:12:10;5.00;;;4.00;;
9524;SDS011;15940;48.734;9.112;2022-12-07T15:14:37;5.33;;;4.30;;
9524;SDS011;15940;48.734;9.112;2022-12-07T15:17:06;5.90;;;4.37;;
9524;SDS011;15940;48.734;9.112;2022-12-07T15:19:36;5.27;;;4.63;;
9524;SDS011;15940;48.734;9.112;2022-12-07T15:22:03;5.73;;;4.27;;
9524;SDS011;15940;48.734;9.112;2022-12-07T15:24:30;7.50;;;6.57;;
9524;SDS011;15940;48.734;9.112;2022-12-07T15:26:57;5.07;;;4.57;;
9524;SDS011;15940;48.734;9.112;2022-12-07T15:29:25;6.07;;;4.47;;
9524;SDS011;15940;48.734;9.112;2022-12-07T15:31:52;9.67;;;5.80;;
9524;SDS011;15940;48.734;9.112;2022-12-07T15:34:21;7.97;;;6.43;;
9524;SDS011;15940;48.734;9.112;2022-12-07T15:36:49;6.70;;;5.20;;
9524;SDS011;15940;48.734;9.112;2022-12-07T15:39:16;5.30;;;4.80;;
9524;SDS011;15940;48.734;9.112;2022-12-07T15:41:43;4.83;;;4.30;;
9524;SDS011;15940;48.734;9.112;2022-12-07T15:44:11;5.00;;;4.50;;
9524;SDS011;15940;48.734;9.112;2022-12-07T15:46:57;5.30;;;4.80;;
9524;SDS011;15940;48.734;9.112;2022-12-07T15:49:25;5.30;;;4.80;;
9524;SDS011;15940;48.734;9.112;2022-12-07T15:51:53;6.33;;;4.57;;
9524;SDS011;15940;48.734;9.112;2022-12-07T15:54:21;5.93;;;5.10;;
9524;SDS011;15940;48.734;9.112;2022-12-07T15:56:50;6.10;;;5.30;;
9524;SDS011;15940;48.734;9.112;2022-12-07T15:59:17;7.73;;;6.00;;
9524;SDS011;15940;48.734;9.112;2022-12-07T16:01:44;8.97;;;7.03;;
9524;SDS011;15940;48.734;9.112;2022-12-07T16:04:12;11.27;;;7.20;;
9524;SDS011;15940;48.734;9.112;2022-12-07T16:06:40;9.63;;;6.90;;
9524;SDS011;15940;48.734;9.112;2022-12-07T16:09:07;8.13;;;6.50;;
9524;SDS011;15940;48.734;9.112;2022-12-07T16:11:34;7.33;;;5.97;;
9524;SDS011;15940;48.734;9.112;2022-12-07T16:14:01;7.67;;;5.80;;
9524;SDS011;15940;48.734;9.112;2022-12-07T16:16:28;6.90;;;5.67;;
9524;SDS011;15940;48.734;9.112;2022-12-07T16:18:56;13.50;;;9.33;;
9524;SDS011;15940;48.734;9.112;2022-12-07T16:21:24;6.50;;;5.80;;
9524;SDS011;15940;48.734;9.112;2022-12-07T16:23:52;7.90;;;6.57;;